createdAt,value
2023-03-16T00:00:36.387Z,6.38
2023-03-16T00:03:04.824Z,6.38
2023-03-16T00:05:33.188Z,6.07
2023-03-16T00:08:01.477Z,6.95
2023-03-16T00:10:29.927Z,5.93
2023-03-16T00:12:58.542Z,7.28
2023-03-16T00:15:26.831Z,6.63
2023-03-16T00:17:56.520Z,6.82
2023-03-16T00:20:24.983Z,6.93
2023-03-16T00:22:53.528Z,6.65
2023-03-16T00:25:21.809Z,7.15
2023-03-16T00:27:50.120Z,7.15
2023-03-16T00:30:18.548Z,6.25
2023-03-16T00:32:46.854Z,7.05
2023-03-16T00:35:16.579Z,7.10
2023-03-16T00:37:45.097Z,9.07
2023-03-16T00:40:14.037Z,9.00
2023-03-16T00:42:42.480Z,7.78
2023-03-16T00:45:11.957Z,8.13
2023-03-16T00:47:40.307Z,7.93
2023-03-16T00:50:09.578Z,8.05
2023-03-16T00:52:39.230Z,7.38
2023-03-16T00:55:08.579Z,7.97
2023-03-16T00:57:36.904Z,7.45
2023-03-16T01:00:12.975Z,7.22
2023-03-16T01:02:41.435Z,7.50
2023-03-16T01:05:10.486Z,7.05
2023-03-16T01:07:40.317Z,6.90
2023-03-16T01:10:09.724Z,7.53
2023-03-16T01:12:38.042Z,7.15
2023-03-16T01:15:07.024Z,7.47
2023-03-16T01:17:35.493Z,7.10
2023-03-16T01:20:05.211Z,6.72
2023-03-16T01:22:33.739Z,7.70
2023-03-16T01:25:03.380Z,7.25
2023-03-16T01:27:31.693Z,7.32
2023-03-16T01:30:00.208Z,7.20
2023-03-16T01:32:28.564Z,8.10
2023-03-16T01:34:57.873Z,7.25
2023-03-16T01:37:26.204Z,7.47
2023-03-16T01:39:54.581Z,7.43
2023-03-16T01:42:24.266Z,7.30
2023-03-16T01:44:54.408Z,7.22
2023-03-16T01:47:23.141Z,8.32
2023-03-16T01:49:54.948Z,7.47
2023-03-16T01:52:24.440Z,7.93
2023-03-16T01:54:54.604Z,8.75
2023-03-16T01:57:24.869Z,8.25
2023-03-16T01:59:54.601Z,8.50
2023-03-16T02:02:25.134Z,8.30
2023-03-16T02:04:56.137Z,8.23
2023-03-16T02:07:26.299Z,8.48
2023-03-16T02:09:56.566Z,7.57
2023-03-16T02:12:26.313Z,8.40
2023-03-16T02:14:54.778Z,9.07
2023-03-16T02:17:24.696Z,8.43
2023-03-16T02:19:58.204Z,8.23
2023-03-16T02:22:26.528Z,8.63
2023-03-16T02:24:54.878Z,8.32
2023-03-16T02:27:26.568Z,7.80
2023-03-16T02:30:11.690Z,8.18
2023-03-16T02:32:40.442Z,6.95
2023-03-16T02:35:09.466Z,7.72
2023-03-16T02:37:37.844Z,6.90
2023-03-16T02:40:18.511Z,6.97
2023-03-16T02:42:47.030Z,7.20
2023-03-16T02:45:16.784Z,6.90
2023-03-16T02:47:46.045Z,7.07
2023-03-16T02:50:14.453Z,6.13
2023-03-16T02:52:42.843Z,6.28
2023-03-16T02:55:11.817Z,6.57
2023-03-16T02:57:40.162Z,6.20
2023-03-16T03:00:13.200Z,6.95
2023-03-16T03:02:44.919Z,7.15
2023-03-16T03:05:13.411Z,6.82
2023-03-16T03:07:42.114Z,7.70
2023-03-16T03:10:11.064Z,7.55
2023-03-16T03:12:39.511Z,8.00
2023-03-16T03:15:08.690Z,8.60
2023-03-16T03:17:37.450Z,9.02
2023-03-16T03:20:13.917Z,8.60
2023-03-16T03:22:42.442Z,9.00
2023-03-16T03:25:10.870Z,8.43
2023-03-16T03:27:39.312Z,8.70
2023-03-16T03:30:08.072Z,8.77
2023-03-16T03:32:36.496Z,11.27
2023-03-16T03:35:04.863Z,10.13
2023-03-16T03:37:35.102Z,9.60
2023-03-16T03:40:10.448Z,9.82
2023-03-16T03:42:38.825Z,9.45
2023-03-16T03:45:07.886Z,9.63
2023-03-16T03:47:36.323Z,9.88
2023-03-16T03:50:04.651Z,10.07
2023-03-16T03:52:34.289Z,9.68
2023-03-16T03:55:02.547Z,9.65
2023-03-16T03:57:30.849Z,9.38
2023-03-16T03:59:59.136Z,9.15
2023-03-16T04:02:27.487Z,10.02
2023-03-16T04:04:55.880Z,9.52
2023-03-16T04:07:24.167Z,9.10
2023-03-16T04:09:53.818Z,8.63
2023-03-16T04:12:22.206Z,8.75
2023-03-16T04:14:51.619Z,8.30
2023-03-16T04:17:22.386Z,8.80
2023-03-16T04:19:50.636Z,8.32
2023-03-16T04:22:18.964Z,8.20
2023-03-16T04:24:47.393Z,6.07
2023-03-16T04:27:17.289Z,7.95
2023-03-16T04:29:45.609Z,9.45
2023-03-16T04:32:14.010Z,8.70
2023-03-16T04:34:43.808Z,8.93
2023-03-16T04:37:12.285Z,8.73
2023-03-16T04:39:40.697Z,8.38
2023-03-16T04:42:09.067Z,8.38
2023-03-16T04:44:44.330Z,8.65
2023-03-16T04:47:12.688Z,9.32
2023-03-16T04:49:40.985Z,8.63
2023-03-16T04:52:09.794Z,8.82
2023-03-16T04:54:38.126Z,9.00
2023-03-16T04:57:06.451Z,9.52
2023-03-16T04:59:34.763Z,10.00
2023-03-16T05:02:04.619Z,11.55
2023-03-16T05:04:34.507Z,10.30
2023-03-16T05:07:02.937Z,9.10
2023-03-16T05:09:31.286Z,8.20
2023-03-16T05:11:59.594Z,9.13
2023-03-16T05:14:28.401Z,7.93
2023-03-16T05:16:56.720Z,9.23
2023-03-16T05:19:26.442Z,9.00
2023-03-16T05:21:54.729Z,8.38
2023-03-16T05:24:23.285Z,7.80
2023-03-16T05:26:52.252Z,7.95
2023-03-16T05:29:20.588Z,7.45
2023-03-16T05:31:48.911Z,7.65
2023-03-16T05:34:17.204Z,6.90
2023-03-16T05:36:46.850Z,7.57
2023-03-16T05:39:15.177Z,7.50
2023-03-16T05:41:44.776Z,7.50
2023-03-16T05:44:13.620Z,7.90
2023-03-16T05:46:41.997Z,8.13
2023-03-16T05:49:12.992Z,7.90
2023-03-16T05:51:41.698Z,8.25
2023-03-16T05:54:13.627Z,8.38
2023-03-16T05:56:41.936Z,8.30
2023-03-16T05:59:10.294Z,8.63
2023-03-16T06:01:40.004Z,8.45
2023-03-16T06:04:08.336Z,9.35
2023-03-16T06:06:36.656Z,9.50
2023-03-16T06:09:05.218Z,8.48
2023-03-16T06:11:34.866Z,10.15
2023-03-16T06:14:03.215Z,9.50
2023-03-16T06:16:31.501Z,9.77
2023-03-16T06:19:00.081Z,9.27
2023-03-16T06:21:28.467Z,11.07
2023-03-16T06:23:56.985Z,10.25
2023-03-16T06:26:25.290Z,18.23
2023-03-16T06:28:54.933Z,15.65
2023-03-16T06:31:23.248Z,12.90
2023-03-16T06:33:51.601Z,12.25
2023-03-16T06:36:19.901Z,11.05
2023-03-16T06:38:48.184Z,12.57
2023-03-16T06:41:16.466Z,11.95
2023-03-16T06:43:44.758Z,12.80
2023-03-16T06:46:14.492Z,11.85
2023-03-16T06:48:42.858Z,12.40
2023-03-16T06:51:11.197Z,12.38
2023-03-16T06:53:39.481Z,13.25
2023-03-16T06:56:08.039Z,13.73
2023-03-16T06:58:36.489Z,11.90
2023-03-16T07:01:04.908Z,13.38
2023-03-16T07:03:34.613Z,19.27
2023-03-16T07:06:03.193Z,13.43
2023-03-16T07:08:31.484Z,10.63
2023-03-16T07:10:59.739Z,16.83
2023-03-16T07:13:27.991Z,18.48
2023-03-16T07:15:56.287Z,12.25
2023-03-16T07:18:25.928Z,12.57
2023-03-16T07:20:56.045Z,11.45
2023-03-16T07:23:24.838Z,10.68
2023-03-16T07:25:53.299Z,10.52
2023-03-16T07:28:21.643Z,10.73
2023-03-16T07:31:02.853Z,12.18
2023-03-16T07:33:32.215Z,10.82
2023-03-16T07:36:04.407Z,12.07
2023-03-16T07:38:33.550Z,11.05
2023-03-16T07:41:02.044Z,10.48
2023-03-16T07:43:30.358Z,10.25
2023-03-16T07:46:01.411Z,11.27
2023-03-16T07:48:29.745Z,9.68
2023-03-16T07:50:58.024Z,11.73
2023-03-16T07:53:27.661Z,10.07
2023-03-16T07:55:55.974Z,11.10
2023-03-16T07:58:24.348Z,11.50
2023-03-16T08:00:52.640Z,11.27
2023-03-16T08:03:20.975Z,12.35
2023-03-16T08:05:49.270Z,11.85
2023-03-16T08:08:17.575Z,11.80
2023-03-16T08:10:48.887Z,12.32
2023-03-16T08:13:17.400Z,10.48
2023-03-16T08:15:47.645Z,10.18
2023-03-16T08:18:16.067Z,9.40
2023-03-16T08:20:44.786Z,8.88
2023-03-16T08:23:13.232Z,10.32
2023-03-16T08:25:41.537Z,9.23
2023-03-16T08:28:12.703Z,10.60
2023-03-16T08:30:45.763Z,9.40
2023-03-16T08:33:14.878Z,10.07
2023-03-16T08:35:44.998Z,9.68
2023-03-16T08:38:13.581Z,8.63
2023-03-16T08:40:46.930Z,8.30
2023-03-16T08:43:17.123Z,8.32
2023-03-16T08:45:46.636Z,9.20
2023-03-16T08:48:15.100Z,7.13
2023-03-16T08:50:44.254Z,7.80
2023-03-16T08:53:13.775Z,7.88
2023-03-16T08:55:42.504Z,8.27
2023-03-16T08:58:12.056Z,7.80
2023-03-16T09:00:43.896Z,8.60
2023-03-16T09:03:13.878Z,6.80
2023-03-16T09:05:42.418Z,7.18
2023-03-16T09:08:10.724Z,8.18
2023-03-16T09:10:39.018Z,7.18
2023-03-16T09:13:07.421Z,7.85
2023-03-16T09:15:36.337Z,7.45
2023-03-16T09:18:06.054Z,7.00
2023-03-16T09:20:34.392Z,6.90
2023-03-16T09:23:03.657Z,6.35
2023-03-16T09:25:32.426Z,6.13
2023-03-16T09:28:01.467Z,5.93
2023-03-16T09:30:30.077Z,5.53
2023-03-16T09:32:58.586Z,5.07
2023-03-16T09:35:28.443Z,4.82
2023-03-16T09:38:06.319Z,5.18
2023-03-16T09:40:35.997Z,4.75
2023-03-16T09:43:12.383Z,4.70
2023-03-16T09:45:44.928Z,5.00
2023-03-16T09:48:13.702Z,5.00
2023-03-16T09:50:49.224Z,4.93
2023-03-16T09:53:20.970Z,5.18
2023-03-16T09:55:50.681Z,4.93
2023-03-16T09:58:20.128Z,4.53
2023-03-16T10:00:53.820Z,4.65
2023-03-16T10:03:29.794Z,4.60
2023-03-16T10:06:03.864Z,4.20
2023-03-16T10:08:34.706Z,4.45
2023-03-16T10:11:23.927Z,4.18
2023-03-16T10:13:53.573Z,4.13
2023-03-16T10:16:24.012Z,4.60
2023-03-16T10:18:56.185Z,4.60
2023-03-16T10:21:27.288Z,3.95
2023-03-16T10:23:56.479Z,3.78
2023-03-16T10:26:26.487Z,3.97
2023-03-16T10:28:55.013Z,3.83
2023-03-16T10:31:24.454Z,3.97
2023-03-16T10:33:55.650Z,3.97
2023-03-16T10:36:29.451Z,4.13
2023-03-16T10:41:29.328Z,3.60
2023-03-16T10:43:58.414Z,4.18
2023-03-16T10:46:27.667Z,3.30
2023-03-16T10:49:00.049Z,3.35
2023-03-16T10:51:31.018Z,3.67
2023-03-16T10:54:04.982Z,3.60
2023-03-16T10:56:35.318Z,3.80
2023-03-16T10:59:03.846Z,3.85
2023-03-16T11:01:33.807Z,3.22
2023-03-16T11:04:02.608Z,3.50
2023-03-16T11:06:33.297Z,3.53
2023-03-16T11:09:08.501Z,3.10
2023-03-16T11:11:36.876Z,3.33
2023-03-16T11:14:12.843Z,2.85
2023-03-16T11:16:42.635Z,3.05
2023-03-16T11:19:16.332Z,3.67
2023-03-16T11:21:50.959Z,6.30
2023-03-16T11:24:23.038Z,3.22
2023-03-16T11:26:55.673Z,3.20
2023-03-16T11:29:26.427Z,3.05
2023-03-16T11:31:56.439Z,3.78
2023-03-16T11:34:27.465Z,3.42
2023-03-16T11:36:59.916Z,3.50
2023-03-16T11:39:40.503Z,2.67
2023-03-16T11:42:17.917Z,2.63
2023-03-16T11:44:50.686Z,3.05
2023-03-16T11:47:33.848Z,3.30
2023-03-16T11:50:03.749Z,2.70
2023-03-16T11:52:39.222Z,2.50
2023-03-16T11:55:16.758Z,2.78
2023-03-16T11:57:51.691Z,2.60
2023-03-16T12:00:28.913Z,2.97
2023-03-16T12:03:06.021Z,2.95
2023-03-16T12:05:49.946Z,3.00
2023-03-16T12:08:29.067Z,2.60
2023-03-16T12:10:58.887Z,2.60
2023-03-16T12:13:33.690Z,2.47
2023-03-16T12:16:06.554Z,2.42
2023-03-16T12:18:39.540Z,2.90
2023-03-16T12:21:12.243Z,2.58
2023-03-16T12:23:43.530Z,2.90
2023-03-16T12:26:12.494Z,2.80
2023-03-16T12:28:42.211Z,2.53
2023-03-16T12:31:12.452Z,2.42
2023-03-16T12:33:55.395Z,2.50
2023-03-16T12:36:42.146Z,2.58
2023-03-16T12:39:14.453Z,2.58
2023-03-16T12:41:47.379Z,2.47
2023-03-16T12:44:17.459Z,2.67
2023-03-16T12:46:51.059Z,2.70
2023-03-16T12:49:19.627Z,2.45
2023-03-16T12:51:49.037Z,2.42
2023-03-16T12:54:22.551Z,2.17
2023-03-16T12:56:51.907Z,2.60
2023-03-16T12:59:21.042Z,2.15
2023-03-16T13:01:50.984Z,2.28
2023-03-16T13:04:20.495Z,2.50
2023-03-16T13:06:52.124Z,2.58
2023-03-16T13:09:25.328Z,2.67
2023-03-16T13:11:56.211Z,2.38
2023-03-16T13:14:42.948Z,2.70
2023-03-16T13:17:30.810Z,2.85
2023-03-16T13:20:20.951Z,2.20
2023-03-16T13:23:10.863Z,2.72
2023-03-16T13:25:44.079Z,1.95
2023-03-16T13:28:21.752Z,2.67
2023-03-16T13:30:58.289Z,2.50
2023-03-16T13:33:34.475Z,2.50
2023-03-16T13:36:04.588Z,2.67
2023-03-16T13:38:37.543Z,2.10
2023-03-16T13:41:11.242Z,2.20
2023-03-16T13:43:40.614Z,2.15
2023-03-16T13:46:17.824Z,2.20
2023-03-16T13:48:48.319Z,2.28
2023-03-16T13:51:20.714Z,2.42
2023-03-16T13:53:49.650Z,2.17
2023-03-16T13:56:29.489Z,2.20
2023-03-16T13:59:02.859Z,2.03
2023-03-16T14:01:32.732Z,2.00
2023-03-16T14:04:08.867Z,2.75
2023-03-16T14:06:38.594Z,2.67
2023-03-16T14:09:09.349Z,2.42
2023-03-16T14:11:39.018Z,2.67
2023-03-16T14:14:17.196Z,2.25
2023-03-16T14:16:48.947Z,2.33
2023-03-16T14:19:24.448Z,1.90
2023-03-16T14:21:55.473Z,1.88
2023-03-16T14:24:31.554Z,1.77
2023-03-16T14:27:13.323Z,2.22
2023-03-16T14:29:43.793Z,1.95
2023-03-16T14:32:23.405Z,2.17
2023-03-16T14:34:54.722Z,2.25
2023-03-16T14:37:38.957Z,2.00
2023-03-16T14:40:31.382Z,2.10
2023-03-16T14:43:02.575Z,2.05
2023-03-16T14:45:34.963Z,1.70
2023-03-16T14:48:07.180Z,1.85
2023-03-16T14:50:39.298Z,1.77
2023-03-16T14:53:09.805Z,1.77
2023-03-16T14:55:40.553Z,1.95
2023-03-16T14:58:12.387Z,2.00
2023-03-16T15:00:52.628Z,2.05
2023-03-16T15:03:22.706Z,1.98
2023-03-16T15:05:54.634Z,2.50
2023-03-16T15:08:28.541Z,1.83
2023-03-16T15:11:31.196Z,2.20
2023-03-16T15:14:38.053Z,2.33
2023-03-16T15:17:12.341Z,2.10
2023-03-16T15:19:43.655Z,2.10
2023-03-16T15:22:15.578Z,2.03
2023-03-16T15:24:45.718Z,1.77
2023-03-16T15:27:22.185Z,2.15
2023-03-16T15:29:50.733Z,2.10
2023-03-16T15:32:31.604Z,1.88
2023-03-16T15:34:59.993Z,1.80
2023-03-16T15:37:30.244Z,2.00
2023-03-16T15:39:58.543Z,1.75
2023-03-16T15:42:28.969Z,2.17
2023-03-16T15:44:59.689Z,2.08
2023-03-16T15:47:32.266Z,1.70
2023-03-16T15:50:01.151Z,1.67
2023-03-16T15:52:39.479Z,2.10
2023-03-16T15:55:16.094Z,1.85
2023-03-16T15:57:45.177Z,1.98
2023-03-16T16:00:25.274Z,1.90
2023-03-16T16:02:55.244Z,1.77
2023-03-16T16:05:27.361Z,2.13
2023-03-16T16:07:56.546Z,2.00
2023-03-16T16:10:31.216Z,2.10
2023-03-16T16:13:00.253Z,2.03
2023-03-16T16:15:35.302Z,2.78
2023-03-16T16:18:20.857Z,2.42
2023-03-16T16:20:52.599Z,2.03
2023-03-16T16:23:20.979Z,1.85
2023-03-16T16:25:51.342Z,1.98
2023-03-16T16:28:21.166Z,2.00
2023-03-16T16:30:49.713Z,2.17
2023-03-16T16:33:27.075Z,2.15
2023-03-16T16:35:56.395Z,4.63
2023-03-16T16:38:25.260Z,3.95
2023-03-16T16:40:54.111Z,5.22
2023-03-16T16:43:28.736Z,3.60
2023-03-16T16:45:57.325Z,3.25
2023-03-16T16:48:31.721Z,2.88
2023-03-16T16:51:00.611Z,2.72
2023-03-16T16:53:29.284Z,5.55
2023-03-16T16:55:58.196Z,2.42
2023-03-16T16:58:27.192Z,3.75
2023-03-16T17:01:02.025Z,2.60
2023-03-16T17:03:31.776Z,2.47
2023-03-16T17:06:00.530Z,2.60
2023-03-16T17:08:33.181Z,2.88
2023-03-16T17:11:01.550Z,2.78
2023-03-16T17:13:32.586Z,2.83
2023-03-16T17:16:00.812Z,2.72
2023-03-16T17:18:38.367Z,2.50
2023-03-16T17:21:10.400Z,1.98
2023-03-16T17:23:39.001Z,2.20
2023-03-16T17:26:14.729Z,2.30
2023-03-16T17:28:45.537Z,2.10
2023-03-16T17:31:19.128Z,2.13
2023-03-16T17:33:47.568Z,2.40
2023-03-16T17:36:18.285Z,2.20
2023-03-16T17:38:46.692Z,2.75
2023-03-16T17:41:22.062Z,2.50
2023-03-16T17:43:50.802Z,2.20
2023-03-16T17:46:20.452Z,2.10
2023-03-16T17:48:50.884Z,2.50
2023-03-16T17:51:21.234Z,2.08
2023-03-16T17:53:49.876Z,1.80
2023-03-16T17:56:19.320Z,2.05
2023-03-16T17:58:48.339Z,2.35
2023-03-16T18:01:16.891Z,2.03
2023-03-16T18:03:46.184Z,2.28
2023-03-16T18:06:17.133Z,2.03
2023-03-16T18:08:48.421Z,2.50
2023-03-16T18:11:17.860Z,2.50
2023-03-16T18:13:46.794Z,2.22
2023-03-16T18:16:17.973Z,2.40
2023-03-16T18:18:46.328Z,2.33
2023-03-16T18:21:20.154Z,2.22
2023-03-16T18:26:18.136Z,2.78
2023-03-16T18:28:46.750Z,6.30
2023-03-16T18:31:19.805Z,4.68
2023-03-16T18:33:48.798Z,3.28
2023-03-16T18:36:18.014Z,2.70
2023-03-16T18:38:48.428Z,3.15
2023-03-16T18:41:19.654Z,2.58
2023-03-16T18:43:48.363Z,2.80
2023-03-16T18:46:22.711Z,2.90
2023-03-16T18:48:51.230Z,2.63
2023-03-16T18:51:20.304Z,2.67
2023-03-16T18:53:51.213Z,2.78
2023-03-16T18:56:24.691Z,2.95
2023-03-16T18:58:53.610Z,3.33
2023-03-16T19:01:28.518Z,3.35
2023-03-16T19:03:57.432Z,3.17
2023-03-16T19:06:38.726Z,3.40
2023-03-16T19:09:10.850Z,3.65
2023-03-16T19:11:44.865Z,3.90
2023-03-16T19:14:20.591Z,3.90
2023-03-16T19:16:48.930Z,3.85
2023-03-16T19:19:21.184Z,4.13
2023-03-16T19:21:49.740Z,4.22
2023-03-16T19:24:21.957Z,4.07
2023-03-16T19:26:52.069Z,4.05
2023-03-16T19:29:25.735Z,4.68
2023-03-16T19:31:59.121Z,4.15
2023-03-16T19:34:27.721Z,4.40
2023-03-16T19:36:56.247Z,5.00
2023-03-16T19:39:35.877Z,5.10
2023-03-16T19:42:11.476Z,5.03
2023-03-16T19:44:42.274Z,4.80
2023-03-16T19:47:30.703Z,5.38
2023-03-16T19:50:05.441Z,5.47
2023-03-16T19:52:36.468Z,5.15
2023-03-16T19:55:18.672Z,5.03
2023-03-16T19:57:52.015Z,5.18
2023-03-16T20:00:25.063Z,5.38
2023-03-16T20:02:55.361Z,5.72
2023-03-16T20:05:28.978Z,5.35
2023-03-16T20:10:27.611Z,5.50
2023-03-16T20:13:11.775Z,5.40
2023-03-16T20:18:14.487Z,5.93
2023-03-16T20:20:46.070Z,6.32
2023-03-16T20:23:21.622Z,6.60
2023-03-16T20:25:52.129Z,5.82
2023-03-16T20:28:26.606Z,6.40
2023-03-16T20:33:40.326Z,6.50
2023-03-16T20:39:40.770Z,5.78
2023-03-16T20:42:14.626Z,5.95
2023-03-16T20:47:28.438Z,5.47
2023-03-16T20:49:58.520Z,5.10
2023-03-16T20:52:41.953Z,5.30
2023-03-16T20:55:15.806Z,6.13
2023-03-16T21:00:26.525Z,5.38
2023-03-16T21:02:56.931Z,5.10
2023-03-16T21:05:28.642Z,5.22
2023-03-16T21:08:06.564Z,5.57
2023-03-16T21:10:43.914Z,5.50
2023-03-16T21:13:39.416Z,5.10
2023-03-16T21:16:13.613Z,4.95
2023-03-16T21:18:53.091Z,4.78
2023-03-16T21:21:30.853Z,5.47
2023-03-16T21:24:04.912Z,4.82
2023-03-16T21:26:42.365Z,5.15
2023-03-16T21:29:20.224Z,5.20
2023-03-16T21:31:49.115Z,5.38
2023-03-16T21:34:23.879Z,6.07
2023-03-16T21:36:59.382Z,7.13
2023-03-16T21:39:30.838Z,7.10
2023-03-16T21:41:59.238Z,6.97
2023-03-16T21:44:27.734Z,7.10
2023-03-16T21:47:15.321Z,5.97
2023-03-16T21:49:45.199Z,5.43
2023-03-16T21:52:26.523Z,5.65
2023-03-16T21:54:57.784Z,6.00
2023-03-16T21:57:36.521Z,5.45
2023-03-16T22:00:05.244Z,6.40
2023-03-16T22:03:15.957Z,6.05
2023-03-16T22:06:02.294Z,5.32
2023-03-16T22:08:33.873Z,5.30
2023-03-16T22:11:29.604Z,5.38
2023-03-16T22:16:14.165Z,5.35
2023-03-16T22:17:29.018Z,5.53
2023-03-16T22:19:57.544Z,4.97
2023-03-16T22:22:34.897Z,4.78
2023-03-16T22:25:03.201Z,4.85
2023-03-16T22:27:43.427Z,5.70
2023-03-16T22:31:04.768Z,4.82
2023-03-16T22:34:14.703Z,5.10
2023-03-16T22:43:52.913Z,5.22
2023-03-16T22:46:44.701Z,4.82
2023-03-16T22:49:36.256Z,4.70
2023-03-16T22:52:36.918Z,4.60
2023-03-16T22:55:10.441Z,4.35
2023-03-16T22:57:39.062Z,4.57
2023-03-16T23:00:11.192Z,4.80
2023-03-16T23:02:39.722Z,4.95
2023-03-16T23:05:19.112Z,4.60
2023-03-16T23:07:47.411Z,5.13
2023-03-16T23:10:18.526Z,4.32
2023-03-16T23:12:47.173Z,4.40
2023-03-16T23:15:17.605Z,4.30
2023-03-16T23:17:46.001Z,4.60
2023-03-16T23:20:18.483Z,4.65
2023-03-16T23:22:47.247Z,4.65
2023-03-16T23:25:15.695Z,4.28
2023-03-16T23:27:45.526Z,4.70
2023-03-16T23:30:17.978Z,4.30
2023-03-16T23:32:46.460Z,4.70
2023-03-16T23:35:16.054Z,4.40
2023-03-16T23:37:44.318Z,4.80
2023-03-16T23:40:13.354Z,4.15
2023-03-16T23:42:42.664Z,4.75
2023-03-16T23:45:17.818Z,4.70
2023-03-16T23:47:48.007Z,4.45
2023-03-16T23:50:22.093Z,4.10
2023-03-16T23:52:50.358Z,4.50
2023-03-16T23:55:19.386Z,4.28
2023-03-16T23:57:47.940Z,4.68
